Morgan City, LA

3:38 AM CDT on August 03, 2015 (GMT -0500)
North Berwick Station | | Change Station
CLOSE
Current Station
Personal Weather Station
Location: Berwick, LA
Elevation: 0 ft
Nearby Weather Stations
Active Advisory: Flood Warning

Elev 0 ft 29.72 °N, 91.24 °W | Updated 12 seconds ago

Clear
Clear
79.3 °F
Feels Like 84 °F
N
0.0
Wind Variable Wind from SSW
Gusts 0.0 mph

Today
High -- | Low -- °F
--% Chance of Precip.
Yesterday
High -- | Low -- °F
Precip. -- in
6:25 AM 7:56 PM
Waning Gibbous, 88% visible
Pressure 29.89 in
Visibility 8.0 miles
Clouds Clear
Heat Index 84 °F
Dew Point 76 °F
Humidity 91%
Rainfall 0.00 in
Snow Depth Not available.
UV 0.0 out of 12
Pollen 3.20 out of 12
Air Quality Not available.
Flu Activity Not available.
METAR KPTN 030835Z AUTO 00000KT 8SM CLR 24/23 A2989 RMK AO1

More Conditions Fewer Conditions

Pressure 29.89 in
Visibility 8.0 miles
Clouds Clear
Heat Index 84 °F
Dew Point 76 °F
Humidity 91%
Rainfall 0.00 in
Snow Depth Not available.
UV 0.0 out of 12
Pollen 3.20 out of 12
Air Quality Not available.
Flu Activity Not available.
METAR KPTN 030835Z AUTO 00000KT 8SM CLR 24/23 A2989 RMK AO1

More Conditions Fewer Conditions

10-Day Weather Forecast

×

Almanac

Astronomy

Aug. 03, 2015 Rise Set
Actual Time
Civil Twilight
Nautical Twilight
Astronomical Twilight
Moon
Length of Visible Light
Length of Day
Tomorrow will be .
, % of the Moon is Illuminated

Today's Extremes

State Highs State Lows

Community

WunderPhotos

Upload Photos

1,843,592 photos uploaded!

WunderBlogs® & News

Nearby

Air Quality

  Air Quality AQ Index Pollutant
Not available.

Snow Depth

Station Depth Elevation

Earthquake Activity

City Distance Mag. Time & Date
Minimum magnitude displayed is 2.5.

Coastal Water Temperatures

Place Temperature

Stations

Nearby Weather Stations

Station Location Temp. Windchill Dew Point Humidity Wind Precip. Elev Updated Type
                   
Flood Warning
Statement as of 7:41 PM CDT on August 02, 2015

The Flood Warning continues for
the Atchafalaya River at Morgan City.
* Until further notice... or until the warning is cancelled.
* At 7:00 PM Sunday the stage was 6.2 feet.
* Minor flooding is occurring and minor flooding is forecast.
* Flood stage is 6.0 feet.
* Forecast... the river will remain near 6.2 feet.
* Impact... at stages near 6.0 feet... flood stage. The city dock will
be under water. Water will cover the lower end of Belleview front
street in Berwick. Vessel traffic will be affected by stronger
river current and vessel traffic safety rules will be strictly
enforced by the U.S. Coast Guard.
* Impact... at stages near 5.0 feet... floodwall gates will be closed
to protect against higher stages. Vessel traffic will be affected
by stronger river current and vessel traffic safety rules will be
strictly enforced by the U.S. Coast Guard.



Lat... Lon 2995 9147 2986 9139 2951 9154 2939 9113
      2980 9110 2997 9124